Time;durP1;ratioP1;P1;durP2;ratioP2;P2;SDS_P1;SDS_P2;PMS_P1;PMS_P2;Temp;Humidity;BMP_temperature;BMP_pressure;BME280_temperature;BME280_humidity;BME280_pressure;Samples;Min_cycle;Max_cycle;Signal;HPM_P1;HPM_P2
2022/07/21 00:01:19;;;;;;;6.32;3.55;;;;;;;21.84;44.23;99448.88;5134623;27;20485;-74
2022/07/21 00:03:45;;;;;;;5.65;3.20;;;;;;;21.56;44.37;99461.94;5103489;28;20123;-73
2022/07/21 00:06:10;;;;;;;5.07;3.25;;;;;;;21.50;44.59;99454.25;5113904;28;20027;-73
2022/07/21 00:08:36;;;;;;;3.60;3.05;;;;;;;21.49;44.86;99458.31;5095957;28;20076;-73
2022/07/21 00:11:02;;;;;;;7.85;3.00;;;;;;;21.41;45.07;99461.16;5124027;27;20033;-74
2022/07/21 00:13:28;;;;;;;10.00;3.78;;;;;;;21.42;44.71;99459.94;5111932;27;20027;-74
2022/07/21 00:15:53;;;;;;;4.43;3.60;;;;;;;21.46;44.83;99465.63;5106499;27;20107;-74
2022/07/21 00:18:19;;;;;;;15.63;4.82;;;;;;;21.57;44.55;99465.59;5094644;27;20028;-74
2022/07/21 00:20:45;;;;;;;6.00;3.30;;;;;;;21.69;44.36;99462.34;5133538;27;20023;-74
2022/07/21 00:23:10;;;;;;;8.35;3.47;;;;;;;21.75;43.89;99457.03;5126287;27;20024;-74
2022/07/21 00:25:36;;;;;;;11.07;3.97;;;;;;;21.56;44.36;99467.66;5126644;27;20034;-73
2022/07/21 00:28:05;;;;;;;4.97;3.42;;;;;;;21.58;44.08;99470.06;5115614;27;20550;-73
2022/07/21 00:30:31;;;;;;;4.40;3.60;;;;;;;21.41;44.47;99464.00;5115504;27;20031;-74
2022/07/21 00:32:57;;;;;;;5.82;3.53;;;;;;;21.41;44.98;99460.34;5128175;27;20032;-73
2022/07/21 00:35:23;;;;;;;4.82;3.63;;;;;;;21.66;44.51;99463.16;5113547;28;20495;-74
2022/07/21 00:37:48;;;;;;;9.10;3.40;;;;;;;21.85;43.88;99458.22;5113359;28;20477;-74
2022/07/21 00:40:15;;;;;;;6.60;3.38;;;;;;;21.86;43.88;99459.84;5115725;27;20019;-73
2022/07/21 00:42:42;;;;;;;5.80;3.83;;;;;;;21.98;43.72;99458.56;5112026;27;20088;-74
2022/07/21 00:45:09;;;;;;;5.32;3.47;;;;;;;21.72;44.21;99453.00;5095016;28;20023;-74
2022/07/21 00:47:35;;;;;;;6.18;3.65;;;;;;;21.94;45.27;99452.09;5113708;28;20088;-73
2022/07/21 00:50:04;;;;;;;8.13;3.50;;;;;;;22.09;45.31;99447.16;5113122;28;20035;-74
2022/07/21 00:52:29;;;;;;;9.55;4.40;;;;;;;21.82;45.46;99459.03;5094063;28;20023;-73
2022/07/21 00:54:55;;;;;;;5.53;4.03;;;;;;;21.54;46.12;99457.88;5114715;27;20034;-74
2022/07/21 00:57:21;;;;;;;8.32;4.05;;;;;;;21.00;46.95;99451.06;5115013;27;20093;-74
2022/07/21 00:59:46;;;;;;;6.43;4.05;;;;;;;20.94;47.64;99454.72;5124428;27;20098;-73
2022/07/21 01:02:13;;;;;;;5.25;4.15;;;;;;;21.03;47.52;99452.28;5128473;27;20417;-73
2022/07/21 01:04:38;;;;;;;10.20;4.40;;;;;;;21.06;47.40;99447.81;5112083;28;20544;-73
2022/07/21 01:07:05;;;;;;;11.30;4.45;;;;;;;20.33;49.12;99442.88;5112701;28;20032;-74
2022/07/21 01:09:31;;;;;;;5.25;4.20;;;;;;;20.02;50.15;99441.56;5112787;28;20020;-73
2022/07/21 01:11:58;;;;;;;4.70;3.55;;;;;;;19.99;50.28;99457.38;5112697;28;20512;-73
2022/07/21 01:14:24;;;;;;;4.30;3.90;;;;;;;19.39;52.06;99459.50;5111833;27;20027;-74
2022/07/21 01:16:50;;;;;;;6.38;4.15;;;;;;;19.45;51.93;99451.41;5094339;28;20080;-73
2022/07/21 01:19:16;;;;;;;5.55;4.28;;;;;;;19.50;51.78;99457.53;5128304;27;20080;-73
2022/07/21 01:21:45;;;;;;;5.75;4.43;;;;;;;19.17;52.81;99461.38;5112421;28;20031;-73
2022/07/21 01:24:11;;;;;;;5.75;5.03;;;;;;;19.04;53.30;99456.03;5110731;28;20451;-73
2022/07/21 01:26:45;;;;;;;19.67;5.20;;;;;;;19.00;52.86;99452.31;5092734;28;20031;-73
2022/07/21 01:29:12;;;;;;;13.43;4.68;;;;;;;19.25;52.58;99456.56;5094753;28;20039;-74
2022/07/21 01:31:40;;;;;;;12.05;4.28;;;;;;;18.93;53.17;99438.09;5127790;27;20505;-73
2022/07/21 01:34:06;;;;;;;8.25;4.32;;;;;;;19.00;53.15;99448.69;5110430;27;20032;-73
2022/07/21 01:36:32;;;;;;;17.10;5.20;;;;;;;18.89;53.51;99449.41;5092907;28;20051;-73
2022/07/21 01:41:42;;;;;;;6.25;4.13;;;;;;;18.94;52.83;99456.72;5132761;27;20045;-74
2022/07/21 01:44:10;;;;;;;4.45;3.67;;;;;;;18.91;52.82;99454.69;5118094;27;20457;-73
2022/07/21 01:46:38;;;;;;;9.52;4.60;;;;;;;18.87;53.17;99442.47;5111811;28;20023;-73
2022/07/21 01:49:05;;;;;;;9.30;5.35;;;;;;;19.07;52.78;99451.59;5118531;27;20031;-73
2022/07/21 01:51:30;;;;;;;6.45;4.63;;;;;;;19.10;52.36;99442.28;5132234;27;20030;-73
2022/07/21 01:53:56;;;;;;;12.98;4.40;;;;;;;19.14;52.13;99454.47;5102163;28;20031;-71
2022/07/21 01:56:23;;;;;;;7.88;4.47;;;;;;;19.28;52.16;99450.09;5093428;28;20027;-71
2022/07/21 01:58:51;;;;;;;8.60;4.97;;;;;;;19.32;51.70;99443.25;5097505;27;20420;-71
2022/07/21 02:01:18;;;;;;;5.30;4.22;;;;;;;19.22;51.96;99446.81;5119288;27;20039;-70
2022/07/21 02:03:44;;;;;;;5.60;4.63;;;;;;;19.22;52.04;99453.31;5110844;28;20509;-71
2022/07/21 02:06:10;;;;;;;10.27;4.30;;;;;;;19.47;51.87;99451.81;5093580;28;20024;-71
2022/07/21 02:08:35;;;;;;;12.43;4.40;;;;;;;19.44;51.89;99455.47;5095897;27;20124;-71
2022/07/21 02:11:01;;;;;;;5.95;4.60;;;;;;;19.27;52.49;99456.97;5104308;28;20035;-71
2022/07/21 02:13:27;;;;;;;15.88;4.65;;;;;;;19.10;52.90;99447.13;5092921;28;20079;-71
2022/07/21 02:15:52;;;;;;;7.22;4.40;;;;;;;19.10;53.02;99452.81;5093352;28;20024;-71
2022/07/21 02:18:19;;;;;;;13.27;4.75;;;;;;;19.16;52.84;99449.22;5120419;27;20031;-71
2022/07/21 02:20:47;;;;;;;5.90;4.72;;;;;;;18.66;54.16;99458.13;5108899;28;20024;-71
2022/07/21 02:23:14;;;;;;;11.20;5.30;;;;;;;18.66;54.20;99446.78;5111453;28;20458;-71
2022/07/21 02:25:40;;;;;;;9.10;5.20;;;;;;;18.42;54.87;99440.50;5093015;28;20038;-71
2022/07/21 02:28:06;;;;;;;10.60;5.78;;;;;;;18.29;55.65;99434.28;5092842;28;20529;-71
2022/07/21 02:30:31;;;;;;;14.38;5.75;;;;;;;18.19;55.56;99438.63;5105759;28;20168;-70
2022/07/21 02:32:57;;;;;;;10.25;5.50;;;;;;;17.85;56.51;99443.44;5111215;28;20482;-71
2022/07/21 02:35:23;;;;;;;9.20;4.57;;;;;;;18.00;56.02;99445.28;5094156;28;20477;-71
2022/07/21 02:37:48;;;;;;;6.15;5.05;;;;;;;18.13;55.45;99442.22;5115411;28;20028;-71
2022/07/21 02:40:14;;;;;;;6.50;4.95;;;;;;;18.44;54.61;99440.91;5130296;27;20019;-71
2022/07/21 02:42:39;;;;;;;5.18;4.32;;;;;;;18.52;54.14;99441.78;5116722;27;20024;-71
2022/07/21 02:45:07;;;;;;;32.70;5.57;;;;;;;18.68;53.56;99438.69;5115482;28;20027;-70
2022/07/21 02:47:32;;;;;;;8.50;4.30;;;;;;;18.67;53.37;99442.75;5115392;28;20020;-71
2022/07/21 02:49:58;;;;;;;9.10;5.32;;;;;;;18.65;52.77;99437.47;5128309;27;20038;-71
2022/07/21 02:52:23;;;;;;;48.15;6.72;;;;;;;18.88;52.83;99438.44;5097246;28;20555;-70
2022/07/21 02:54:49;;;;;;;9.30;4.35;;;;;;;19.07;51.96;99426.88;5097017;28;20023;-70
2022/07/21 02:57:14;;;;;;;11.57;4.00;;;;;;;19.19;51.72;99434.28;5115414;28;20382;-71
2022/07/21 02:59:40;;;;;;;8.23;4.05;;;;;;;19.16;51.69;99435.03;5118746;27;20172;-71
2022/07/21 03:02:05;;;;;;;8.13;3.58;;;;;;;19.34;51.11;99437.19;5115734;27;20101;-70
2022/07/21 03:04:31;;;;;;;13.07;4.43;;;;;;;19.27;50.95;99426.63;5126213;27;20061;-71
2022/07/21 03:06:56;;;;;;;8.77;3.90;;;;;;;19.33;51.08;99439.19;5115182;28;20118;-71
2022/07/21 03:09:22;;;;;;;14.32;5.93;;;;;;;19.32;51.34;99445.28;5130781;27;20115;-71
2022/07/21 03:11:47;;;;;;;12.65;4.70;;;;;;;19.38;50.59;99425.88;5114397;28;20032;-70
2022/07/21 03:14:13;;;;;;;11.35;3.90;;;;;;;19.31;50.61;99443.66;5130985;27;20486;-71
2022/07/21 03:16:38;;;;;;;8.32;3.58;;;;;;;19.21;50.43;99433.84;5111849;28;20031;-70
2022/07/21 03:19:04;;;;;;;6.78;4.05;;;;;;;19.09;50.79;99440.69;5117580;27;20530;-71
2022/07/21 03:21:29;;;;;;;24.95;4.90;;;;;;;18.95;51.55;99435.66;5113883;28;20028;-71
2022/07/21 03:23:55;;;;;;;11.77;4.55;;;;;;;18.98;51.66;99434.09;5096512;28;20031;-74
2022/07/21 03:26:20;;;;;;;19.25;4.47;;;;;;;18.91;51.86;99429.97;5130233;27;20516;-73
2022/07/21 03:28:46;;;;;;;8.18;4.35;;;;;;;18.66;52.17;99444.75;5130294;27;20523;-72
2022/07/21 03:31:12;;;;;;;7.78;4.28;;;;;;;18.64;52.42;99435.84;5112683;27;20033;-74
2022/07/21 03:33:38;;;;;;;9.10;4.68;;;;;;;18.90;51.82;99438.88;5112011;27;20629;-73
2022/07/21 03:36:03;;;;;;;5.03;4.20;;;;;;;19.16;51.26;99443.53;5114484;28;20043;-77
2022/07/21 03:38:29;;;;;;;11.32;4.75;;;;;;;19.19;51.65;99445.59;5100467;27;20446;-76
2022/07/21 03:40:54;;;;;;;8.32;4.75;;;;;;;19.10;51.96;99439.47;5130040;27;20062;-77
2022/07/21 03:43:20;;;;;;;9.15;4.70;;;;;;;19.19;51.61;99437.09;5096185;28;20027;-75
2022/07/21 03:45:45;;;;;;;8.80;4.93;;;;;;;19.04;52.02;99439.03;5096157;28;20055;-78
2022/07/21 03:48:11;;;;;;;11.68;5.10;;;;;;;19.07;52.36;99445.94;5127783;27;20091;-78
2022/07/21 03:50:42;;;;;;;8.02;4.78;;;;;;;18.89;52.28;99443.72;5112971;28;20118;-76
2022/07/21 03:53:08;;;;;;;10.50;5.28;;;;;;;18.58;52.81;99428.91;5111847;28;20501;-73
2022/07/21 03:55:34;;;;;;;8.52;5.22;;;;;;;18.64;53.12;99440.66;5094280;28;20027;-74
2022/07/21 03:58:03;;;;;;;10.65;4.93;;;;;;;18.61;53.27;99439.47;5095228;28;20016;-74
2022/07/21 04:00:33;;;;;;;12.18;5.03;;;;;;;18.73;53.26;99448.88;5098057;27;20355;-73
2022/07/21 04:02:59;;;;;;;5.78;4.07;;;;;;;18.88;52.76;99447.78;5100824;28;20038;-73
2022/07/21 04:05:26;;;;;;;7.25;4.57;;;;;;;19.06;52.43;99439.44;5114106;28;20031;-74
2022/07/21 04:07:52;;;;;;;10.98;4.82;;;;;;;19.10;52.36;99442.28;5130051;27;20041;-74
2022/07/21 04:10:20;;;;;;;7.80;5.05;;;;;;;19.15;52.23;99446.78;5114089;27;20023;-74
2022/07/21 04:12:46;;;;;;;13.32;4.57;;;;;;;19.16;52.13;99452.03;5116308;27;20077;-74
2022/07/21 04:15:12;;;;;;;10.30;4.70;;;;;;;18.98;52.58;99434.09;5129823;27;20028;-74
2022/07/21 04:17:39;;;;;;;9.77;4.50;;;;;;;19.08;52.51;99441.88;5111722;27;20027;-74
2022/07/21 04:20:06;;;;;;;7.38;4.55;;;;;;;19.03;52.73;99433.72;5127310;27;20023;-74
2022/07/21 04:22:32;;;;;;;17.33;5.40;;;;;;;19.10;53.66;99445.13;5123198;27;20049;-74
2022/07/21 04:24:57;;;;;;;11.88;5.72;;;;;;;19.17;53.31;99433.81;5090416;28;20031;-74
2022/07/21 04:27:22;;;;;;;13.52;6.45;;;;;;;19.48;52.89;99450.63;5094521;28;20023;-74
2022/07/21 04:29:48;;;;;;;8.80;5.05;;;;;;;19.49;52.62;99441.72;5107571;27;20031;-74
2022/07/21 04:32:14;;;;;;;11.23;6.03;;;;;;;19.69;51.82;99435.75;5117728;27;20156;-74
2022/07/21 04:34:39;;;;;;;12.38;5.60;;;;;;;19.79;51.23;99431.31;5113458;27;20091;-74
2022/07/21 04:37:05;;;;;;;11.73;5.40;;;;;;;19.91;51.06;99422.44;5117316;27;20019;-74
2022/07/21 04:39:30;;;;;;;7.45;4.57;;;;;;;20.08;50.80;99428.59;5124097;27;20023;-74
2022/07/21 04:41:56;;;;;;;14.75;5.50;;;;;;;20.29;50.14;99433.53;5113708;28;20482;-74
2022/07/21 04:44:22;;;;;;;7.18;4.32;;;;;;;20.55;49.82;99420.19;5096416;28;20019;-74
2022/07/21 04:46:47;;;;;;;11.20;5.55;;;;;;;20.65;49.63;99424.25;5132738;27;20106;-74
2022/07/21 04:49:13;;;;;;;15.50;5.70;;;;;;;20.77;49.50;99425.88;5126381;27;20044;-74
2022/07/21 04:51:39;;;;;;;14.13;6.40;;;;;;;20.76;50.15;99432.78;5095587;28;20443;-74
2022/07/21 04:54:05;;;;;;;14.93;6.63;;;;;;;20.85;50.06;99427.50;5113599;27;20023;-74
2022/07/21 04:56:31;;;;;;;15.07;6.70;;;;;;;21.00;50.63;99430.38;5119650;27;20481;-74
2022/07/21 04:58:58;;;;;;;18.17;8.23;;;;;;;21.16;50.09;99425.06;5130800;27;20030;-75
2022/07/21 05:01:23;;;;;;;22.73;9.57;;;;;;;21.34;49.15;99424.19;5122720;27;20050;-75
2022/07/21 05:03:49;;;;;;;28.08;8.50;;;;;;;21.56;48.02;99424.97;5102542;28;20045;-75
2022/07/21 05:06:14;;;;;;;28.10;9.85;;;;;;;21.74;48.02;99433.47;5109827;27;20155;-74
2022/07/21 05:08:40;;;;;;;20.30;8.85;;;;;;;21.79;46.96;99437.09;5133329;27;20493;-75
2022/07/21 05:11:05;;;;;;;24.58;8.43;;;;;;;21.88;46.99;99438.25;5116783;27;20248;-75
2022/07/21 05:13:31;;;;;;;12.02;6.68;;;;;;;21.72;46.44;99441.59;5113547;28;20452;-74
2022/07/21 05:15:56;;;;;;;17.95;7.32;;;;;;;21.77;46.76;99440.34;5114838;28;20490;-75
2022/07/21 05:18:22;;;;;;;10.57;5.93;;;;;;;21.86;47.55;99445.63;5114628;28;20413;-75
2022/07/21 05:20:47;;;;;;;18.75;5.75;;;;;;;21.96;47.34;99435.41;5122153;27;20020;-75
2022/07/21 05:23:13;;;;;;;10.68;5.88;;;;;;;21.86;47.52;99434.22;5114998;28;20131;-75
2022/07/21 05:25:38;;;;;;;17.83;5.53;;;;;;;21.79;47.83;99440.78;5114966;28;20027;-75
2022/07/21 05:28:06;;;;;;;9.63;5.03;;;;;;;21.79;47.30;99448.47;5126657;27;20132;-75
2022/07/21 05:30:32;;;;;;;12.88;5.75;;;;;;;21.90;46.73;99448.44;5105703;28;20042;-75
2022/07/21 05:32:57;;;;;;;12.57;5.22;;;;;;;21.98;46.92;99439.47;5093770;28;20024;-76
2022/07/21 05:35:23;;;;;;;20.40;6.25;;;;;;;21.98;46.73;99433.75;5115833;28;20073;-75
2022/07/21 05:37:48;;;;;;;10.52;6.13;;;;;;;22.34;46.91;99443.34;5118475;28;20027;-76
2022/07/21 05:40:15;;;;;;;17.50;5.82;;;;;;;22.56;45.83;99444.84;5109873;28;20023;-75
2022/07/21 05:42:40;;;;;;;19.20;6.28;;;;;;;22.88;45.44;99442.16;5086415;28;20119;-76
2022/07/21 05:45:07;;;;;;;18.40;6.88;;;;;;;23.03;44.16;99431.44;5084618;28;20070;-73
2022/07/21 05:47:32;;;;;;;23.23;7.82;;;;;;;23.31;44.22;99440.97;5089630;28;20030;-73
2022/07/21 05:49:58;;;;;;;12.38;6.43;;;;;;;23.53;42.82;99441.53;5098253;28;20023;-72
2022/07/21 05:52:24;;;;;;;12.90;5.43;;;;;;;23.81;42.29;99436.72;5095396;28;20028;-73
2022/07/21 05:54:49;;;;;;;8.10;5.50;;;;;;;24.06;40.96;99438.47;5090777;28;20016;-72
2022/07/21 05:57:15;;;;;;;8.95;3.92;;;;;;;24.28;39.13;99430.41;5091281;28;20027;-71
2022/07/21 05:59:40;;;;;;;8.98;4.30;;;;;;;24.42;39.72;99429.41;5091120;28;20044;-71
2022/07/21 06:02:06;;;;;;;7.78;4.35;;;;;;;24.61;39.26;99439.31;5090052;28;20513;-71
2022/07/21 06:04:32;;;;;;;7.13;4.10;;;;;;;24.85;39.35;99439.38;5091333;28;20031;-72
2022/07/21 06:06:57;;;;;;;9.95;3.90;;;;;;;25.01;38.44;99432.97;5104024;28;20047;-74
2022/07/21 06:09:23;;;;;;;8.88;4.13;;;;;;;25.20;37.84;99422.81;5110441;28;20109;-72
2022/07/21 06:11:49;;;;;;;6.35;4.00;;;;;;;25.27;37.68;99418.19;5111646;28;20028;-75
2022/07/21 06:14:14;;;;;;;11.30;4.88;;;;;;;25.48;37.28;99420.63;5112418;28;20049;-75
2022/07/21 06:16:39;;;;;;;10.75;4.00;;;;;;;25.73;37.39;99427.94;5107566;28;20039;-80
2022/07/21 06:19:09;;;;;;;16.25;4.20;;;;;;;25.87;37.00;99428.88;5095638;28;20058;-74
2022/07/21 06:21:35;;;;;;;7.43;3.73;;;;;;;25.98;36.52;99415.16;5106467;28;20042;-73
2022/07/21 06:24:01;;;;;;;16.40;3.55;;;;;;;26.12;35.76;99416.91;5094690;28;20438;-73
2022/07/21 06:26:26;;;;;;;13.02;4.13;;;;;;;26.25;36.19;99413.38;5088866;28;20032;-73
2022/07/21 06:28:52;;;;;;;43.13;5.25;;;;;;;26.39;35.12;99410.16;5079353;28;20046;-73
2022/07/21 06:31:19;;;;;;;16.30;4.13;;;;;;;26.46;34.68;99407.13;5070560;28;20434;-73
2022/07/21 06:33:45;;;;;;;11.70;4.03;;;;;;;26.53;34.78;99400.41;5067938;28;20036;-74
2022/07/21 06:36:10;;;;;;;25.23;4.93;;;;;;;26.63;34.30;99399.34;5083007;28;20566;-75
2022/07/21 06:38:36;;;;;;;10.35;4.38;;;;;;;26.70;34.46;99401.22;5100216;28;20033;-74
2022/07/21 06:41:01;;;;;;;25.48;5.90;;;;;;;26.82;34.15;99404.63;5067885;28;20479;-73
2022/07/21 06:43:27;;;;;;;10.63;5.78;;;;;;;26.94;33.96;99401.06;5067799;28;20081;-74
2022/07/21 06:45:53;;;;;;;13.80;6.88;;;;;;;27.02;33.60;99399.59;5066700;28;20028;-73
2022/07/21 06:48:18;;;;;;;21.90;6.82;;;;;;;27.17;33.45;99407.84;5083069;28;20434;-73
2022/07/21 06:50:44;;;;;;;14.48;8.32;;;;;;;27.29;33.30;99400.53;5068911;28;20390;-72
2022/07/21 06:53:09;;;;;;;15.52;10.02;;;;;;;27.37;33.59;99401.16;5070566;28;20028;-71
2022/07/21 06:55:36;;;;;;;19.15;11.32;;;;;;;27.46;34.01;99404.19;5101226;28;20126;-72
2022/07/21 06:58:16;;;;;;;19.30;11.98;;;;;;;27.57;33.97;99392.41;5070590;28;20025;-70
2022/07/21 07:00:41;;;;;;;;;;;;;;;27.66;33.69;99386.81;5071002;28;20036;-71
2022/07/21 07:03:07;;;;;;;19.60;11.95;;;;;;;27.80;33.79;99385.59;5070319;28;19912;-71
2022/07/21 07:05:33;;;;;;;17.40;11.15;;;;;;;27.87;33.85;99385.38;5070357;28;20094;-71
2022/07/21 07:07:58;;;;;;;15.15;10.43;;;;;;;28.06;33.24;99377.00;5069378;28;20029;-72
2022/07/21 07:10:24;;;;;;;9.57;6.38;;;;;;;28.21;32.36;99373.69;5070877;28;20018;-72
2022/07/21 07:12:49;;;;;;;8.70;5.40;;;;;;;28.33;31.93;99366.34;5070239;28;20028;-72
2022/07/21 07:15:15;;;;;;;9.85;4.78;;;;;;;28.40;31.75;99372.66;5070428;28;20558;-72
2022/07/21 07:17:40;;;;;;;10.18;4.75;;;;;;;28.44;31.72;99358.19;5102403;28;20056;-72
2022/07/21 07:20:07;;;;;;;9.27;5.97;;;;;;;28.57;31.64;99369.66;5069424;28;20031;-72
2022/07/21 07:22:33;;;;;;;14.75;6.82;;;;;;;28.66;30.94;99358.25;5070747;28;20545;-71
2022/07/21 07:24:59;;;;;;;6.15;5.22;;;;;;;28.86;30.37;99365.84;5106633;28;20043;-71
2022/07/21 07:27:24;;;;;;;7.18;5.47;;;;;;;28.88;30.38;99360.41;5106507;28;20158;-71
2022/07/21 07:29:51;;;;;;;15.55;6.10;;;;;;;29.08;30.91;99359.31;5099724;27;20104;-73
2022/07/21 07:32:16;;;;;;;10.10;4.97;;;;;;;29.23;29.92;99371.94;5095304;28;20116;-73
2022/07/21 07:34:42;;;;;;;11.15;4.47;;;;;;;29.40;30.86;99363.91;5095798;28;20482;-73
2022/07/21 07:37:08;;;;;;;6.93;3.95;;;;;;;29.22;30.30;99353.03;5102072;28;20046;-72
2022/07/21 07:39:33;;;;;;;7.65;3.80;;;;;;;29.48;30.43;99350.06;5114715;28;20024;-73
2022/07/21 07:41:59;;;;;;;9.48;3.78;;;;;;;29.69;29.90;99353.41;5114911;27;20027;-73
2022/07/21 07:44:24;;;;;;;9.95;3.20;;;;;;;29.90;29.29;99356.72;5111910;27;20035;-74
2022/07/21 07:46:50;;;;;;;13.52;3.58;;;;;;;29.89;28.33;99350.16;5107314;28;20035;-74
2022/07/21 07:49:16;;;;;;;9.30;4.30;;;;;;;30.03;29.06;99342.22;5113754;28;20020;-75
2022/07/21 07:51:42;;;;;;;11.27;3.50;;;;;;;30.12;29.29;99348.06;5113527;28;20391;-74
2022/07/21 07:54:07;;;;;;;6.85;3.13;;;;;;;29.95;28.74;99330.97;5107633;27;20074;-75
2022/07/21 07:56:33;;;;;;;12.25;4.20;;;;;;;30.10;29.84;99339.88;5111629;28;20347;-75
2022/07/21 07:58:58;;;;;;;24.77;4.22;;;;;;;30.24;29.00;99338.50;5103731;27;20027;-75
2022/07/21 08:01:24;;;;;;;7.38;3.60;;;;;;;30.31;29.08;99331.63;5086040;27;20055;-75
2022/07/21 08:03:50;;;;;;;17.77;4.25;;;;;;;30.33;28.37;99322.47;5108472;27;20085;-75
2022/07/21 08:06:16;;;;;;;8.07;3.60;;;;;;;30.51;28.14;99327.50;5112142;28;20031;-74
2022/07/21 08:08:41;;;;;;;14.52;3.92;;;;;;;30.52;27.76;99327.03;5095187;28;20114;-75
2022/07/21 08:11:07;;;;;;;17.15;4.22;;;;;;;30.73;28.27;99315.06;5113742;27;20088;-75
2022/07/21 08:13:32;;;;;;;11.38;3.13;;;;;;;30.84;28.01;99315.41;5094620;28;20031;-75
2022/07/21 08:15:58;;;;;;;11.80;3.28;;;;;;;30.88;27.43;99310.25;5113725;28;20224;-74
2022/07/21 08:18:24;;;;;;;11.30;3.80;;;;;;;30.82;28.17;99329.50;5113119;28;20065;-74
2022/07/21 08:20:49;;;;;;;10.10;4.03;;;;;;;30.53;27.28;99301.88;5093752;28;20028;-74
2022/07/21 08:23:16;;;;;;;5.93;3.78;;;;;;;30.96;27.57;99305.00;5094308;28;20035;-74
2022/07/21 08:25:42;;;;;;;4.53;3.65;;;;;;;31.00;27.50;99299.03;5113397;27;20033;-74
2022/07/21 08:28:07;;;;;;;10.13;3.22;;;;;;;31.14;27.51;99304.19;5112535;28;20489;-74
2022/07/21 08:30:33;;;;;;;6.50;2.95;;;;;;;31.32;27.55;99302.59;5115381;27;20041;-76
2022/07/21 08:33:00;;;;;;;5.90;2.70;;;;;;;31.38;26.92;99300.66;5109180;27;20041;-74
2022/07/21 08:35:26;;;;;;;10.52;3.15;;;;;;;31.50;26.99;99291.00;5111613;27;20517;-73
2022/07/21 08:38:03;;;;;;;5.32;2.97;;;;;;;31.72;26.84;99295.75;5103490;27;20111;-74
2022/07/21 08:40:31;;;;;;;8.65;3.33;;;;;;;31.70;27.10;99286.75;5115080;27;20024;-76
2022/07/21 08:42:57;;;;;;;8.07;2.78;;;;;;;32.02;26.95;99290.22;5114286;27;20046;-77
2022/07/21 08:45:23;;;;;;;16.95;4.45;;;;;;;32.22;27.52;99291.72;5091173;28;20078;-78
2022/07/21 08:47:52;;;;;;;4.50;2.83;;;;;;;32.24;25.89;99282.53;5090847;28;20032;-76
2022/07/21 08:50:17;;;;;;;4.05;3.13;;;;;;;32.38;25.38;99286.84;5109499;27;20023;-77
2022/07/21 08:52:43;;;;;;;4.75;2.53;;;;;;;32.48;26.03;99285.50;5093189;28;20413;-75
2022/07/21 08:55:08;;;;;;;9.18;2.72;;;;;;;32.62;25.82;99281.84;5110886;27;20555;-75
2022/07/21 08:57:38;;;;;;;4.72;3.10;;;;;;;32.76;25.14;99277.41;5090800;28;20110;-75
2022/07/21 09:00:04;;;;;;;14.30;4.88;;;;;;;32.74;24.83;99274.19;5093698;28;20031;-77
2022/07/21 09:02:33;;;;;;;16.55;4.80;;;;;;;32.76;24.14;99265.03;5093303;28;20036;-74
2022/07/21 09:04:59;;;;;;;15.10;4.57;;;;;;;32.81;24.68;99257.75;5112887;28;20426;-80
2022/07/21 09:07:25;;;;;;;19.25;4.00;;;;;;;32.89;24.26;99253.97;5097803;28;20031;-79
2022/07/21 09:10:01;;;;;;;10.45;4.22;;;;;;;33.17;24.76;99258.75;5095363;28;20096;-75
2022/07/21 09:12:29;;;;;;;5.25;4.72;;;;;;;33.26;24.18;99258.66;5086318;28;20042;-74
2022/07/21 09:15:14;;;;;;;6.40;4.30;;;;;;;33.15;23.92;99238.19;5099190;28;20505;-73
2022/07/21 09:17:40;;;;;;;8.85;3.65;;;;;;;33.28;23.93;99252.34;5104045;28;20056;-73
2022/07/21 09:20:22;;;;;;;8.30;3.58;;;;;;;33.23;24.34;99250.16;5093611;28;20486;-73
2022/07/21 09:23:05;;;;;;;9.50;3.95;;;;;;;33.50;23.67;99251.19;5097975;28;20031;-73
2022/07/21 09:25:45;;;;;;;6.78;3.30;;;;;;;33.50;23.95;99243.31;5112138;28;20023;-76
2022/07/21 09:28:12;;;;;;;;;;;;;;;33.56;23.49;99244.19;5091267;28;20019;-76
2022/07/21 09:30:56;;;;;;;11.10;2.88;;;;;;;33.63;23.04;99233.50;5099642;27;19968;-76
2022/07/21 09:33:35;;;;;;;15.15;5.05;;;;;;;33.75;23.31;99246.88;5080496;28;20040;-75
2022/07/21 09:36:10;;;;;;;6.93;2.72;;;;;;;33.88;23.20;99235.75;5102854;28;20039;-75
2022/07/21 09:38:58;;;;;;;29.17;4.07;;;;;;;33.88;22.79;99218.34;5108718;27;20039;-76
2022/07/21 09:41:25;;;;;;;18.65;3.95;;;;;;;33.96;22.69;99235.31;5089699;28;20512;-76
2022/07/21 09:43:56;;;;;;;6.70;3.17;;;;;;;34.03;22.71;99226.22;5082061;28;20051;-77
2022/07/21 09:46:31;;;;;;;15.02;3.13;;;;;;;34.15;21.73;99230.06;5096465;28;20027;-76
2022/07/21 09:49:00;;;;;;;3.47;2.50;;;;;;;33.65;21.79;99225.88;5090548;28;20073;-75
2022/07/21 09:51:43;;;;;;;4.40;2.97;;;;;;;33.85;22.46;99224.34;5076586;28;20023;-75
2022/07/21 09:54:11;;;;;;;3.65;3.05;;;;;;;33.93;21.77;99216.84;5086591;28;20405;-75
2022/07/21 09:56:39;;;;;;;5.22;4.60;;;;;;;34.01;21.97;99223.03;5074759;28;20031;-77
2022/07/21 09:59:07;;;;;;;10.82;3.75;;;;;;;34.07;21.83;99211.53;5100050;28;20027;-78
2022/07/21 10:01:33;;;;;;;6.82;2.70;;;;;;;34.02;21.97;99225.41;5102892;27;20077;-77
2022/07/21 10:03:59;;;;;;;5.00;2.25;;;;;;;34.33;21.31;99219.50;5099217;28;20497;-84
2022/07/21 10:06:30;;;;;;;3.55;2.42;;;;;;;34.16;21.08;99214.28;5106327;27;20525;-79
2022/07/21 10:08:58;;;;;;;7.32;2.83;;;;;;;33.77;21.33;99217.34;5091838;28;20028;-80
2022/07/21 10:11:25;;;;;;;7.03;2.97;;;;;;;34.03;20.97;99211.72;5107491;28;20401;-80
2022/07/21 10:13:51;;;;;;;4.63;2.45;;;;;;;33.96;20.43;99207.13;5089421;28;20058;-83
2022/07/21 10:16:17;;;;;;;6.50;2.28;;;;;;;34.30;21.24;99209.72;5090858;28;20051;-76
2022/07/21 10:19:22;;;;;;;3.45;2.55;;;;;;;34.51;20.83;99213.47;5107454;28;20028;-77
2022/07/21 10:22:13;;;;;;;4.13;2.25;;;;;;;34.34;20.76;99203.69;5093030;27;20038;-77
2022/07/21 10:24:39;;;;;;;2.92;2.53;;;;;;;34.20;20.95;99206.16;5099190;27;20088;-77
2022/07/21 10:27:13;;;;;;;12.38;2.90;;;;;;;34.83;20.94;99196.13;5107061;28;20804;-75
2022/07/21 10:29:48;;;;;;;7.68;2.83;;;;;;;34.19;20.80;99187.16;5085861;28;20052;-76
2022/07/21 10:32:18;;;;;;;6.68;3.92;;;;;;;34.38;20.57;99198.47;5090471;28;20032;-75
2022/07/21 10:34:44;;;;;;;6.20;3.22;;;;;;;34.42;20.05;99191.13;5091024;28;20700;-73
2022/07/21 10:37:30;;;;;;;7.30;2.53;;;;;;;34.67;21.03;99188.03;5107492;28;20034;-76
2022/07/21 10:39:56;;;;;;;7.75;3.00;;;;;;;34.44;20.60;99184.84;5103978;28;20093;-81
2022/07/21 10:42:21;;;;;;;3.40;2.72;;;;;;;35.00;20.95;99183.91;5090386;28;20586;-76
2022/07/21 10:44:47;;;;;;;8.43;2.63;;;;;;;34.92;20.97;99174.81;5092299;28;20504;-77
2022/07/21 10:47:23;;;;;;;3.85;2.90;;;;;;;35.32;20.37;99180.25;5103218;28;20080;-76
2022/07/21 10:49:51;;;;;;;2.80;2.60;;;;;;;34.29;20.13;99177.00;5098542;28;20577;-77
2022/07/21 10:52:35;;;;;;;4.82;2.88;;;;;;;34.83;20.37;99178.69;5089574;28;20027;-78
2022/07/21 10:55:09;;;;;;;8.30;3.35;;;;;;;34.30;20.44;99167.00;5075557;28;20498;-83
2022/07/21 10:57:36;;;;;;;11.57;3.20;;;;;;;34.33;20.46;99164.38;5093776;28;20023;-86
2022/07/21 11:00:36;;;;;;;5.72;3.05;;;;;;;34.30;21.20;99169.91;5094405;28;20027;-82
2022/07/21 11:03:22;;;;;;;;;;;;;;;34.67;20.82;99170.63;5082049;28;20053;-80
2022/07/21 11:06:06;;;;;;;4.53;3.08;;;;;;;34.64;20.97;99165.84;5085680;28;19915;-82
2022/07/21 11:08:38;;;;;;;11.13;2.85;;;;;;;34.68;20.15;99160.59;5105302;27;20516;-78
2022/07/21 11:11:12;;;;;;;3.00;2.67;;;;;;;35.13;19.65;99151.56;5093354;27;20021;-78
2022/07/21 11:14:08;;;;;;;4.95;3.17;;;;;;;35.24;19.56;99154.56;5110762;27;20024;-78
2022/07/21 11:16:43;;;;;;;8.93;2.83;;;;;;;35.62;21.17;99148.00;5111212;27;20103;-78
2022/07/21 11:19:30;;;;;;;4.20;2.70;;;;;;;35.22;21.43;99153.47;5096102;28;20046;-79
2022/07/21 11:22:03;;;;;;;5.82;2.97;;;;;;;35.38;20.68;99149.94;5114365;27;20023;-79
2022/07/21 11:24:29;;;;;;;15.15;4.07;;;;;;;35.27;20.52;99146.94;5114767;27;20039;-79
2022/07/21 11:27:05;;;;;;;6.07;2.75;;;;;;;35.04;21.19;99155.44;5106622;28;20028;-79
2022/07/21 11:29:33;;;;;;;7.15;2.92;;;;;;;35.70;21.74;99147.00;5112922;27;20047;-79
2022/07/21 11:32:01;;;;;;;6.38;2.92;;;;;;;36.16;20.15;99147.28;5096414;28;20023;-79
2022/07/21 11:34:47;;;;;;;4.90;2.88;;;;;;;35.95;20.32;99137.88;5095143;28;20042;-78